Archival Weather

Chicago O'Hare International

Chicago, Illinois (KORD)

Report from: Wednesday, July 19, 2023 5:51 AM CDT
Current time: Monday, July 22, 2024 5:21 AM CDT

Current weather – Weather history – Daily summaries
Weather forecast

Temperature18.3°C (64.9°F)
Dew point12.8°C (55.0°F)
Winds Calm
Visibility10 mi. (16.1 km)
Clouds Few clouds 10,000 ft. (3,048 m)
Few clouds 25,000 ft. (7,620 m)
Altimeter30.04 in.Hg (1017 mB)
Relative humidity70 %
Density altitude474 ft. (145 m)
Sea-level pressure101.7 kPa (1017 mB, 30.03 in.Hg)
Remarks System requires maintenance
Automated weather observing station with precipitation discriminator
Flight conditions Visual Meteorological Conditions
Raw dataKORD 191051Z 00000KT 10SM FEW100 FEW250 18/13 A3004 RMK AO2 SLP168 T01830128 $
An error has occurred. This application may no longer respond until reloaded. Reload 🗙